Time;durP1;ratioP1;P1;durP2;ratioP2;P2;SDS_P1;SDS_P2;PMS_P1;PMS_P2;Temp;Humidity;BMP_temperature;BMP_pressure;BME280_temperature;BME280_humidity;BME280_pressure;Samples;Min_cycle;Max_cycle;Signal;HPM_P1;HPM_P2
2021/01/05 00:01:13;;;;;;;;;;;;;;;;;;5081110;28;20406;-83
2021/01/05 00:03:39;;;;;;;;;;;;;;;;;;5077508;28;20390;-83
2021/01/05 00:06:05;;;;;;;;;;;;;;;;;;5077537;28;20381;-83
2021/01/05 00:08:32;;;;;;;;;;;;;;;;;;5078324;28;20388;-83
2021/01/05 00:10:58;;;;;;;;;;;;;;;;;;5078977;28;20416;-84
2021/01/05 00:13:25;;;;;;;;;;;;;;;;;;5079053;28;20746;-85
2021/01/05 00:15:51;;;;;;;;;;;;;;;;;;5085714;28;20387;-85
2021/01/05 00:18:17;;;;;;;;;;;;;;;;;;5100960;28;20393;-84
2021/01/05 00:20:44;;;;;;;;;;;;;;;;;;5099375;28;20393;-85
2021/01/05 00:23:10;;;;;;;;;;;;;;;;;;5099504;28;20366;-84
2021/01/05 00:25:36;;;;;;;;;;;;;;;;;;5077040;28;20451;-82
2021/01/05 00:28:03;;;;;;;;;;;;;;;;;;5075905;28;20389;-83
2021/01/05 00:30:29;;;;;;;;;;;;;;;;;;5079662;28;20409;-82
2021/01/05 00:32:55;;;;;;;;;;;;;;;;;;5078215;28;20419;-83
2021/01/05 00:35:22;;;;;;;;;;;;;;;;;;5076768;28;20392;-85
2021/01/05 00:37:49;;;;;;;;;;;;;;;;;;5075753;28;20765;-82
2021/01/05 00:40:15;;;;;;;;;;;;;;;;;;5092592;28;20399;-81
2021/01/05 00:42:42;;;;;;;;;;;;;;;;;;5090220;28;20411;-83
2021/01/05 00:45:08;;;;;;;;;;;;;;;;;;5104936;28;20384;-81
2021/01/05 00:47:35;;;;;;;;;;;;;;;;;;5106769;28;20928;-81
2021/01/05 00:50:01;;;;;;;;;;;;;;;;;;5095775;28;20425;-84
2021/01/05 00:52:29;;;;;;;;;;;;;;;;;;5085655;28;20375;-82
2021/01/05 00:54:56;;;;;;;;;;;;;;;;;;5087856;28;20382;-81
2021/01/05 00:57:23;;;;;;;;;;;;;;;;;;5109640;28;20418;-83
2021/01/05 00:59:49;;;;;;;;;;;;;;;;;;5111654;28;20387;-80
2021/01/05 01:02:16;;;;;;;;;;;;;;;;;;5115224;28;20375;-82
2021/01/05 01:04:42;;;;;;;;;;;;;;;;;;5098268;28;20389;-80
2021/01/05 01:07:08;;;;;;;;;;;;;;;;;;5081605;28;20389;-83
2021/01/05 01:09:35;;;;;;;;;;;;;;;;;;5076072;28;20478;-83
2021/01/05 01:12:01;;;;;;;;;;;;;;;;;;5102104;28;20437;-79
2021/01/05 01:14:27;;;;;;;;;;;;;;;;;;5117783;28;20387;-83
2021/01/05 01:16:54;;;;;;;;;;;;;;;;;;5118053;28;20398;-84
2021/01/05 01:19:21;;;;;;;;;;;;;;;;;;5088447;28;20397;-83
2021/01/05 01:21:48;;;;;;;;;;;;;;;;;;5094457;28;20409;-81
2021/01/05 01:24:14;;;;;;;;;;;;;;;;;;5097857;28;20387;-83
2021/01/05 01:26:40;;;;;;;;;;;;;;;;;;5091033;28;20785;-83
2021/01/05 01:29:07;;;;;;;;;;;;;;;;;;5080860;28;20432;-85
2021/01/05 01:31:33;;;;;;;;;;;;;;;;;;5090926;28;20402;-83
2021/01/05 01:34:00;;;;;;;;;;;;;;;;;;5080708;28;20376;-84
2021/01/05 01:36:26;;;;;;;;;;;;;;;;;;5088577;28;20369;-84
2021/01/05 01:38:52;;;;;;;;;;;;;;;;;;5096464;28;20390;-84
2021/01/05 01:41:19;;;;;;;;;;;;;;;;;;5089826;28;20405;-84
2021/01/05 01:43:45;;;;;;;;;;;;;;;;;;5075006;28;20753;-84
2021/01/05 01:46:12;;;;;;;;;;;;;;;;;;5078596;28;20396;-85
2021/01/05 01:48:38;;;;;;;;;;;;;;;;;;5080272;28;20430;-83
2021/01/05 01:51:04;;;;;;;;;;;;;;;;;;5074712;28;20417;-85
2021/01/05 01:53:31;;;;;;;;;;;;;;;;;;5080687;28;20396;-85
2021/01/05 01:55:57;;;;;;;;;;;;;;;;;;5088768;28;20381;-85
2021/01/05 01:58:23;;;;;;;;;;;;;;;;;;5098651;28;20396;-84
2021/01/05 02:00:50;;;;;;;;;;;;;;;;;;5098340;28;20389;-85
2021/01/05 02:03:16;;;;;;;;;;;;;;;;;;5091405;28;20905;-83
2021/01/05 02:05:43;;;;;;;;;;;;;;;;;;5084458;28;20379;-81
2021/01/05 02:08:09;;;;;;;;;;;;;;;;;;5078000;28;20807;-82
2021/01/05 02:10:36;;;;;;;;;;;;;;;;;;5077471;28;20424;-82
2021/01/05 02:13:02;;;;;;;;;;;;;;;;;;5078075;28;20385;-82
2021/01/05 02:15:30;;;;;;;;;;;;;;;;;;5078036;28;20381;-85
2021/01/05 02:17:56;;;;;;;;;;;;;;;;;;5077460;28;20405;-83
2021/01/05 02:20:22;;;;;;;;;;;;;;;;;;5077040;28;20390;-83
2021/01/05 02:22:49;;;;;;;;;;;;;;;;;;5077490;28;20401;-83
2021/01/05 02:25:15;;;;;;;;;;;;;;;;;;5077762;28;20385;-80
2021/01/05 02:27:42;;;;;;;;;;;;;;;;;;5086537;28;20843;-83
2021/01/05 02:30:08;;;;;;;;;;;;;;;;;;5094491;28;20399;-83
2021/01/05 02:32:34;;;;;;;;;;;;;;;;;;5098006;28;20432;-82
2021/01/05 02:35:01;;;;;;;;;;;;;;;;;;5083985;28;20464;-83
2021/01/05 02:37:27;;;;;;;;;;;;;;;;;;5103367;28;20407;-79
2021/01/05 02:39:53;;;;;;;;;;;;;;;;;;5121270;28;20366;-84
2021/01/05 02:42:20;;;;;;;;;;;;;;;;;;5101134;28;20392;-81
2021/01/05 02:44:46;;;;;;;;;;;;;;;;;;5082487;28;20405;-83
2021/01/05 02:47:12;;;;;;;;;;;;;;;;;;5080694;28;20427;-82
2021/01/05 02:49:39;;;;;;;;;;;;;;;;;;5077461;28;20386;-82
2021/01/05 02:52:05;;;;;;;;;;;;;;;;;;5087728;28;20406;-85
2021/01/05 02:54:32;;;;;;;;;;;;;;;;;;5080015;28;20431;-83
2021/01/05 02:56:58;;;;;;;;;;;;;;;;;;5077693;28;20413;-85
2021/01/05 02:59:24;;;;;;;;;;;;;;;;;;5096780;28;20383;-84
2021/01/05 03:01:51;;;;;;;;;;;;;;;;;;5101825;28;20387;-82
2021/01/05 03:04:17;;;;;;;;;;;;;;;;;;5109665;28;20371;-84
2021/01/05 03:06:43;;;;;;;;;;;;;;;;;;5096449;28;20750;-84
2021/01/05 03:09:10;;;;;;;;;;;;;;;;;;5087912;28;20431;-84
2021/01/05 03:11:36;;;;;;;;;;;;;;;;;;5100331;22;20439;-85
2021/01/05 03:14:03;;;;;;;;;;;;;;;;;;5060588;28;20387;-86
2021/01/05 03:16:31;;;;;;;;;;;;;;;;;;5076192;28;20570;-86
2021/01/05 03:18:57;;;;;;;;;;;;;;;;;;5050033;28;20387;-86
2021/01/05 03:21:24;;;;;;;;;;;;;;;;;;5056343;28;20412;-85
2021/01/05 03:23:50;;;;;;;;;;;;;;;;;;5088988;28;20515;-86
2021/01/05 03:26:16;;;;;;;;;;;;;;;;;;5065938;28;20380;-87
2021/01/05 03:28:43;;;;;;;;;;;;;;;;;;5079041;28;20388;-87
2021/01/05 03:31:09;;;;;;;;;;;;;;;;;;5059790;28;20408;-87
2021/01/05 03:33:35;;;;;;;;;;;;;;;;;;5069056;28;20381;-86
2021/01/05 03:36:02;;;;;;;;;;;;;;;;;;5072136;28;20387;-86
2021/01/05 03:38:28;;;;;;;;;;;;;;;;;;5061435;28;20426;-86
2021/01/05 03:40:54;;;;;;;;;;;;;;;;;;5057140;28;20412;-86
2021/01/05 03:43:21;;;;;;;;;;;;;;;;;;5062902;28;20373;-87
2021/01/05 03:45:47;;;;;;;;;;;;;;;;;;5074450;28;20389;-86
2021/01/05 03:48:14;;;;;;;;;;;;;;;;;;5061833;28;20378;-86
2021/01/05 03:50:40;;;;;;;;;;;;;;;;;;5075073;28;20402;-86
2021/01/05 03:53:06;;;;;;;;;;;;;;;;;;5057469;28;20385;-86
2021/01/05 03:55:33;;;;;;;;;;;;;;;;;;5067900;28;20830;-86
2021/01/05 03:57:59;;;;;;;;;;;;;;;;;;5057085;28;20408;-86
2021/01/05 04:00:26;;;;;;;;;;;;;;;;;;5067200;28;20394;-86
2021/01/05 04:02:52;;;;;;;;;;;;;;;;;;5074100;28;20804;-86
2021/01/05 04:05:19;;;;;;;;;;;;;;;;;;5077823;28;20382;-86
2021/01/05 04:07:45;;;;;;;;;;;;;;;;;;5076273;28;20392;-86
2021/01/05 04:10:11;;;;;;;;;;;;;;;;;;5064389;28;20384;-87
2021/01/05 04:12:38;;;;;;;;;;;;;;;;;;5059261;28;20434;-86
2021/01/05 04:15:04;;;;;;;;;;;;;;;;;;5066382;28;20844;-87
2021/01/05 04:17:31;;;;;;;;;;;;;;;;;;5067598;28;20409;-86
2021/01/05 04:19:57;;;;;;;;;;;;;;;;;;5073192;28;20394;-87
2021/01/05 04:22:23;;;;;;;;;;;;;;;;;;5078760;28;20387;-87
2021/01/05 04:24:50;;;;;;;;;;;;;;;;;;5073958;28;20446;-87
2021/01/05 04:27:16;;;;;;;;;;;;;;;;;;5056721;28;20737;-87
2021/01/05 04:29:42;;;;;;;;;;;;;;;;;;5057953;28;20392;-87
2021/01/05 04:32:09;;;;;;;;;;;;;;;;;;5066191;28;20408;-87
2021/01/05 04:34:35;;;;;;;;;;;;;;;;;;5057668;28;20748;-87
2021/01/05 04:37:01;;;;;;;;;;;;;;;;;;5071497;28;20396;-88
2021/01/05 04:39:28;;;;;;;;;;;;;;;;;;5076560;28;20389;-89
2021/01/05 04:41:54;;;;;;;;;;;;;;;;;;5068005;28;20422;-89
2021/01/05 04:44:21;;;;;;;;;;;;;;;;;;5059860;28;20380;-89
2021/01/05 04:46:47;;;;;;;;;;;;;;;;;;5055391;28;20745;-89
2021/01/05 04:49:13;;;;;;;;;;;;;;;;;;5056334;28;20391;-89
2021/01/05 04:51:40;;;;;;;;;;;;;;;;;;5055962;28;20401;-89
2021/01/05 04:54:06;;;;;;;;;;;;;;;;;;5057971;28;20377;-89
2021/01/05 04:56:32;;;;;;;;;;;;;;;;;;5056251;28;20384;-89
2021/01/05 04:58:59;;;;;;;;;;;;;;;;;;5067297;28;20551;-88
2021/01/05 05:01:25;;;;;;;;;;;;;;;;;;5056333;28;20861;-86
2021/01/05 05:03:52;;;;;;;;;;;;;;;;;;5056263;28;20389;-86
2021/01/05 05:06:18;;;;;;;;;;;;;;;;;;5071373;28;20833;-86
2021/01/05 05:08:44;;;;;;;;;;;;;;;;;;5071837;28;20377;-87
2021/01/05 05:11:11;;;;;;;;;;;;;;;;;;5078285;28;20417;-87
2021/01/05 05:13:37;;;;;;;;;;;;;;;;;;5062455;28;20380;-87
2021/01/05 05:16:04;;;;;;;;;;;;;;;;;;5071168;28;20399;-87
2021/01/05 05:18:30;;;;;;;;;;;;;;;;;;5057447;28;20502;-87
2021/01/05 05:20:56;;;;;;;;;;;;;;;;;;5056853;28;20875;-86
2021/01/05 05:23:23;;;;;;;;;;;;;;;;;;5059882;28;20376;-87
2021/01/05 05:25:49;;;;;;;;;;;;;;;;;;5067754;28;20401;-87
2021/01/05 05:28:15;;;;;;;;;;;;;;;;;;5074845;28;20373;-87
2021/01/05 05:30:42;;;;;;;;;;;;;;;;;;5061883;28;20404;-87
2021/01/05 05:33:08;;;;;;;;;;;;;;;;;;5078329;28;20780;-87
2021/01/05 05:35:36;;;;;;;;;;;;;;;;;;5071066;28;20373;-87
2021/01/05 05:38:02;;;;;;;;;;;;;;;;;;5077565;28;20401;-87
2021/01/05 05:40:28;;;;;;;;;;;;;;;;;;5073757;28;20910;-86
2021/01/05 05:42:55;;;;;;;;;;;;;;;;;;5072629;28;20389;-86
2021/01/05 05:45:21;;;;;;;;;;;;;;;;;;5078459;28;20465;-86
2021/01/05 05:47:47;;;;;;;;;;;;;;;;;;5068881;28;20385;-86
2021/01/05 05:50:14;;;;;;;;;;;;;;;;;;5062465;28;20384;-87
2021/01/05 05:52:40;;;;;;;;;;;;;;;;;;5074473;28;20391;-86
2021/01/05 05:55:07;;;;;;;;;;;;;;;;;;5063492;28;20459;-87
2021/01/05 05:57:33;;;;;;;;;;;;;;;;;;5077481;28;20400;-86
2021/01/05 05:59:59;;;;;;;;;;;;;;;;;;5092357;28;20459;-86
2021/01/05 06:02:26;;;;;;;;;;;;;;;;;;5083904;28;20401;-86
2021/01/05 06:04:52;;;;;;;;;;;;;;;;;;5081842;28;20811;-86
2021/01/05 06:07:18;;;;;;;;;;;;;;;;;;5066525;28;20395;-86
2021/01/05 06:09:45;;;;;;;;;;;;;;;;;;5062176;28;20381;-85
2021/01/05 06:12:11;;;;;;;;;;;;;;;;;;5062293;28;20419;-86
2021/01/05 06:14:38;;;;;;;;;;;;;;;;;;5081850;28;20378;-86
2021/01/05 06:17:04;;;;;;;;;;;;;;;;;;5072617;28;20411;-86
2021/01/05 06:19:30;;;;;;;;;;;;;;;;;;5070843;28;20385;-87
2021/01/05 06:21:57;;;;;;;;;;;;;;;;;;5073810;28;20401;-87
2021/01/05 06:24:23;;;;;;;;;;;;;;;;;;5075137;28;20395;-87
2021/01/05 06:26:50;;;;;;;;;;;;;;;;;;5076959;28;20396;-87
2021/01/05 06:29:16;;;;;;;;;;;;;;;;;;5075360;28;20387;-87
2021/01/05 06:31:42;;;;;;;;;;;;;;;;;;5066582;28;20408;-86
2021/01/05 06:34:09;;;;;;;;;;;;;;;;;;5094128;28;20397;-87
2021/01/05 06:36:35;;;;;;;;;;;;;;;;;;5068871;28;20384;-87
2021/01/05 06:39:04;;;;;;;;;;;;;;;;;;5061335;28;20399;-87
2021/01/05 06:41:30;;;;;;;;;;;;;;;;;;5075427;28;20807;-87
2021/01/05 06:43:56;;;;;;;;;;;;;;;;;;5073365;28;20365;-87
2021/01/05 06:46:23;;;;;;;;;;;;;;;;;;5100996;28;20385;-87
2021/01/05 06:48:49;;;;;;;;;;;;;;;;;;5100884;28;20408;-87
2021/01/05 06:51:16;;;;;;;;;;;;;;;;;;5066334;28;20408;-87
2021/01/05 06:53:42;;;;;;;;;;;;;;;;;;5060444;28;20384;-87
2021/01/05 06:56:08;;;;;;;;;;;;;;;;;;5062081;28;20467;-87
2021/01/05 06:58:35;;;;;;;;;;;;;;;;;;5075660;28;20414;-87
2021/01/05 07:01:01;;;;;;;;;;;;;;;;;;5091250;28;20396;-87
2021/01/05 07:03:28;;;;;;;;;;;;;;;;;;5074993;28;20382;-87
2021/01/05 07:05:54;;;;;;;;;;;;;;;;;;5063058;28;20400;-87
2021/01/05 07:08:21;;;;;;;;;;;;;;;;;;5061340;28;20930;-87
2021/01/05 07:10:48;;;;;;;;;;;;;;;;;;5060961;28;20478;-87
2021/01/05 07:13:14;;;;;;;;;;;;;;;;;;5069411;28;20386;-87
2021/01/05 07:15:41;;;;;;;;;;;;;;;;;;5069411;28;20399;-87
2021/01/05 07:18:07;;;;;;;;;;;;;;;;;;5060640;28;20420;-87
2021/01/05 07:20:34;;;;;;;;;;;;;;;;;;5076845;28;20417;-87
2021/01/05 07:23:00;;;;;;;;;;;;;;;;;;5082539;28;20453;-87
2021/01/05 07:25:27;;;;;;;;;;;;;;;;;;5072096;28;20383;-86
2021/01/05 07:27:53;;;;;;;;;;;;;;;;;;5092956;28;20358;-86
2021/01/05 07:30:20;;;;;;;;;;;;;;;;;;5080997;28;20397;-87
2021/01/05 07:32:46;;;;;;;;;;;;;;;;;;5072895;28;21026;-86
2021/01/05 07:35:13;;;;;;;;;;;;;;;;;;5075884;28;20376;-87
2021/01/05 07:37:41;;;;;;;;;;;;;;;;;;5085363;28;22465;-87
2021/01/05 07:40:08;;;;;;;;;;;;;;;;;;5079258;28;20390;-86
2021/01/05 07:42:34;;;;;;;;;;;;;;;;;;5059683;28;20414;-87
2021/01/05 07:45:01;;;;;;;;;;;;;;;;;;5071110;28;20710;-87
2021/01/05 07:47:27;;;;;;;;;;;;;;;;;;5080372;28;20385;-87
2021/01/05 07:49:54;;;;;;;;;;;;;;;;;;5069945;28;20388;-86
2021/01/05 07:52:20;;;;;;;;;;;;;;;;;;5064396;28;20906;-87
2021/01/05 07:54:47;;;;;;;;;;;;;;;;;;5073351;28;20425;-87
2021/01/05 07:57:13;;;;;;;;;;;;;;;;;;5067869;28;20391;-87
2021/01/05 07:59:40;;;;;;;;;;;;;;;;;;5078350;28;20366;-87
2021/01/05 08:02:06;;;;;;;;;;;;;;;;;;5078245;28;20486;-87
2021/01/05 08:04:33;;;;;;;;;;;;;;;;;;5079469;28;20393;-87
2021/01/05 08:06:59;;;;;;;;;;;;;;;;;;5069721;28;20392;-86
2021/01/05 08:09:26;;;;;;;;;;;;;;;;;;5089418;28;20390;-86
2021/01/05 08:11:52;;;;;;;;;;;;;;;;;;5069720;28;20508;-86
2021/01/05 08:14:19;;;;;;;;;;;;;;;;;;5063715;28;20380;-86
2021/01/05 08:16:48;;;;;;;;;;;;;;;;;;5072562;28;20386;-87
2021/01/05 08:19:17;;;;;;;;;;;;;;;;;;5078540;28;20794;-87
2021/01/05 08:21:43;;;;;;;;;;;;;;;;;;5070247;28;20427;-87
2021/01/05 08:24:09;;;;;;;;;;;;;;;;;;5062665;28;20384;-87
2021/01/05 08:26:37;;;;;;;;;;;;;;;;;;5073013;28;20746;-87
2021/01/05 08:29:04;;;;;;;;;;;;;;;;;;5076569;28;20369;-88
2021/01/05 08:31:30;;;;;;;;;;;;;;;;;;5063142;28;20423;-87
2021/01/05 08:33:56;;;;;;;;;;;;;;;;;;5068025;28;20389;-86
2021/01/05 08:36:23;;;;;;;;;;;;;;;;;;5080727;28;20388;-88
2021/01/05 08:38:49;;;;;;;;;;;;;;;;;;5081969;28;20463;-88
2021/01/05 08:41:16;;;;;;;;;;;;;;;;;;5069710;28;20397;-88
2021/01/05 08:43:42;;;;;;;;;;;;;;;;;;5071816;28;20456;-88
2021/01/05 08:46:09;;;;;;;;;;;;;;;;;;5077149;28;20393;-88
2021/01/05 08:48:36;;;;;;;;;;;;;;;;;;5061464;28;20441;-89
2021/01/05 08:51:02;;;;;;;;;;;;;;;;;;5074170;28;20422;-87
2021/01/05 08:53:29;;;;;;;;;;;;;;;;;;5075705;28;20381;-88
2021/01/05 08:55:55;;;;;;;;;;;;;;;;;;5072305;28;20391;-89
2021/01/05 08:58:24;;;;;;;;;;;;;;;;;;5068847;28;20400;-86
2021/01/05 09:00:50;;;;;;;;;;;;;;;;;;5066215;28;20408;-86
2021/01/05 09:03:16;;;;;;;;;;;;;;;;;;5066529;28;20407;-87
2021/01/05 09:05:43;;;;;;;;;;;;;;;;;;5070986;28;20376;-87
2021/01/05 09:08:09;;;;;;;;;;;;;;;;;;5078556;28;20830;-87
2021/01/05 09:10:36;;;;;;;;;;;;;;;;;;5080066;28;20546;-86
2021/01/05 09:13:04;;;;;;;;;;;;;;;;;;5076435;28;20358;-87
2021/01/05 09:15:31;;;;;;;;;;;;;;;;;;5065612;28;20390;-87
2021/01/05 09:17:59;;;;;;;;;;;;;;;;;;5071746;28;20411;-88
2021/01/05 09:20:25;;;;;;;;;;;;;;;;;;5065033;28;20827;-88
2021/01/05 09:22:52;;;;;;;;;;;;;;;;;;5062123;28;20829;-88
2021/01/05 10:16:13;;;;;;;;;;;;;;;;;;5059766;28;20418;-90
2021/01/05 10:18:39;;;;;;;;;;;;;;;;;;5073467;28;20449;-88
2021/01/05 10:21:10;;;;;;;;;;;;;;;;;;5077144;28;20391;-86
2021/01/05 10:23:36;;;;;;;;;;;;;;;;;;5087379;28;20413;-88
2021/01/05 10:26:03;;;;;;;;;;;;;;;;;;5088568;28;20907;-87
2021/01/05 10:28:29;;;;;;;;;;;;;;;;;;5062418;28;20387;-87
2021/01/05 10:30:56;;;;;;;;;;;;;;;;;;5064182;28;20373;-86
2021/01/05 10:33:22;;;;;;;;;;;;;;;;;;5066421;28;20396;-86
2021/01/05 10:35:49;;;;;;;;;;;;;;;;;;5062951;28;20422;-87
2021/01/05 10:38:15;;;;;;;;;;;;;;;;;;5063348;28;20420;-89
2021/01/05 10:40:42;;;;;;;;;;;;;;;;;;5060585;28;20391;-87
2021/01/05 10:43:08;;;;;;;;;;;;;;;;;;5064440;28;20378;-87
2021/01/05 10:45:35;;;;;;;;;;;;;;;;;;5040986;28;20408;-87
2021/01/05 10:48:01;;;;;;;;;;;;;;;;;;5057707;28;20380;-88
2021/01/05 11:15:10;;;;;;;;;;;;;;;;;;4917457;29;20419;-86
2021/01/05 11:17:36;;;;;;;;;;;;;;;;;;4908541;29;20431;-85
2021/01/05 11:20:02;;;;;;;;;;;;;;;;;;4914555;29;20434;-86
2021/01/05 11:22:29;;;;;;;;;;;;;;;;;;4913837;29;20403;-83
2021/01/05 11:24:55;;;;;;;;;;;;;;;;;;4911328;29;20423;-85
2021/01/05 11:27:22;;;;;;;;;;;;;;;;;;4918041;29;20419;-86
2021/01/05 11:29:49;;;;;;;;;;;;;;;;;;4914031;29;20393;-88
2021/01/05 11:32:16;;;;;;;;;;;;;;;;;;4918384;29;20499;-86
2021/01/05 11:34:42;;;;;;;;;;;;;;;;;;4934377;28;20396;-88
2021/01/05 11:37:09;;;;;;;;;;;;;;;;;;4989364;28;20528;-88
2021/01/05 11:39:35;;;;;;;;;;;;;;;;;;4996411;28;20384;-85
2021/01/05 11:42:04;;;;;;;;;;;;;;;;;;5001308;28;20379;-85
2021/01/05 11:44:30;;;;;;;;;;;;;;;;;;5022366;28;20422;-85
2021/01/05 12:00:32;;;;;;;;;;;;;;;;;;4936892;29;20487;-85
2021/01/05 12:02:59;;;;;;;;;;;;;;;;;;4948608;29;20398;-85
2021/01/05 12:05:25;;;;;;;;;;;;;;;;;;4944624;29;20905;-88
2021/01/05 12:07:52;;;;;;;;;;;;;;;;;;4936780;29;20405;-87
2021/01/05 12:10:20;;;;;;;;;;;;;;;;;;4935728;29;20455;-87
2021/01/05 12:12:47;;;;;;;;;;;;;;;;;;4947067;29;20448;-87
2021/01/05 12:15:13;;;;;;;;;;;;;;;;;;4935214;29;20396;-88
2021/01/05 12:17:40;;;;;;;;;;;;;;;;;;4946797;28;20442;-86
2021/01/05 12:20:06;;;;;;;;;;;;;;;;;;5003670;28;20380;-87
2021/01/05 12:22:33;;;;;;;;;;;;;;;;;;5054204;28;20399;-86
2021/01/05 12:24:59;;;;;;;;;;;;;;;;;;5059136;28;20388;-85
2021/01/05 12:27:25;;;;;;;;;;;;;;;;;;5053238;28;20388;-89
2021/01/05 12:29:52;;;;;;;;;;;;;;;;;;5057386;28;20839;-85
2021/01/05 12:32:18;;;;;;;;;;;;;;;;;;5059037;28;20397;-87
2021/01/05 12:34:45;;;;;;;;;;;;;;;;;;5064962;28;20380;-86
2021/01/05 12:37:11;;;;;;;;;;;;;;;;;;5054820;28;20399;-85
2021/01/05 12:39:38;;;;;;;;;;;;;;;;;;5069781;28;20387;-83
2021/01/05 12:42:04;;;;;;;;;;;;;;;;;;5082557;28;20376;-83
2021/01/05 12:44:31;;;;;;;;;;;;;;;;;;5097612;28;20366;-84
2021/01/05 12:46:57;;;;;;;;;;;;;;;;;;5061953;28;20408;-85
2021/01/05 12:49:25;;;;;;;;;;;;;;;;;;5048997;28;20391;-85
2021/01/05 12:51:53;;;;;;;;;;;;;;;;;;5066624;28;20384;-88
2021/01/05 12:54:21;;;;;;;;;;;;;;;;;;5057711;28;20380;-88
2021/01/05 12:56:47;;;;;;;;;;;;;;;;;;5059031;28;20399;-87
2021/01/05 12:59:14;;;;;;;;;;;;;;;;;;5054594;28;20400;-88
2021/01/05 13:01:41;;;;;;;;;;;;;;;;;;5054314;28;20384;-87
2021/01/05 13:04:07;;;;;;;;;;;;;;;;;;5038970;28;20379;-87
2021/01/05 13:06:34;;;;;;;;;;;;;;;;;;5048487;28;20390;-85
2021/01/05 13:09:01;;;;;;;;;;;;;;;;;;5076876;28;20364;-86
2021/01/05 13:11:28;;;;;;;;;;;;;;;;;;5080234;28;20391;-87
2021/01/05 13:13:54;;;;;;;;;;;;;;;;;;5073818;28;20384;-88
2021/01/05 13:16:21;;;;;;;;;;;;;;;;;;5055376;28;20436;-91
2021/01/05 13:18:47;;;;;;;;;;;;;;;;;;5036410;28;20414;-88
2021/01/05 13:21:14;;;;;;;;;;;;;;;;;;5056524;28;20800;-89
2021/01/05 13:23:40;;;;;;;;;;;;;;;;;;5065374;28;20471;-89
2021/01/05 13:26:07;;;;;;;;;;;;;;;;;;5070301;28;20802;-89
2021/01/05 13:28:33;;;;;;;;;;;;;;;;;;5072804;28;20370;-88
2021/01/05 13:30:59;;;;;;;;;;;;;;;;;;5055163;28;20437;-87
2021/01/05 13:33:26;;;;;;;;;;;;;;;;;;5060186;28;20384;-86
2021/01/05 13:35:52;;;;;;;;;;;;;;;;;;5067906;28;20410;-88
2021/01/05 13:38:20;;;;;;;;;;;;;;;;;;5057779;28;20412;-88
2021/01/05 13:40:47;;;;;;;;;;;;;;;;;;5070220;28;20813;-87
2021/01/05 13:43:13;;;;;;;;;;;;;;;;;;5076854;28;20407;-88
2021/01/05 13:45:39;;;;;;;;;;;;;;;;;;5056425;28;20824;-87
2021/01/05 13:48:06;;;;;;;;;;;;;;;;;;5057943;28;20380;-85
2021/01/05 13:50:32;;;;;;;;;;;;;;;;;;5057724;28;20395;-88
2021/01/05 13:52:59;;;;;;;;;;;;;;;;;;5056678;28;20384;-89
2021/01/05 13:55:25;;;;;;;;;;;;;;;;;;5057210;28;20411;-85
2021/01/05 13:57:53;;;;;;;;;;;;;;;;;;5064830;28;20416;-86
2021/01/05 14:00:20;;;;;;;;;;;;;;;;;;5065124;28;20419;-87
2021/01/05 14:10:51;;;;;;;;;;;;;;;;;;5548464;22;20467;-85
2021/01/05 14:13:17;;;;;;;;;;;;;;;;;;5054730;28;20400;-85
2021/01/05 14:15:44;;;;;;;;;;;;;;;;;;5064073;28;20415;-85
2021/01/05 14:18:10;;;;;;;;;;;;;;;;;;5066387;28;20403;-85
2021/01/05 14:20:46;;;;;;;;;;;;;;;;;;5068901;28;20471;-85
2021/01/05 14:26:08;;;;;;;;;;;;;;;;;;5002316;28;20393;-84
2021/01/05 14:39:51;;;;;;;;;;;;;;;;;;4949821;29;20428;-84
2021/01/05 14:53:27;;;;;;;;;;;;;;;;;;4954905;29;20384;-83
2021/01/05 14:55:54;;;;;;;;;;;;;;;;;;4946308;29;20428;-85
2021/01/05 14:58:20;;;;;;;;;;;;;;;;;;4959316;29;20425;-85
2021/01/05 15:00:46;;;;;;;;;;;;;;;;;;4962059;29;20782;-84
2021/01/05 15:03:13;;;;;;;;;;;;;;;;;;4962017;29;20397;-86
2021/01/05 15:05:39;;;;;;;;;;;;;;;;;;4962903;29;20390;-84
2021/01/05 15:08:06;;;;;;;;;;;;;;;;;;4960384;29;20392;-84
2021/01/05 15:10:33;;;;;;;;;;;;;;;;;;4952436;29;20476;-86
2021/01/05 15:13:00;;;;;;;;;;;;;;;;;;4970888;28;20443;-85
2021/01/05 15:15:26;;;;;;;;;;;;;;;;;;5033887;28;20391;-85
2021/01/05 15:17:52;;;;;;;;;;;;;;;;;;5037077;28;20399;-85
2021/01/05 15:20:19;;;;;;;;;;;;;;;;;;5038413;28;20413;-87
2021/01/05 15:22:46;;;;;;;;;;;;;;;;;;5039023;28;20407;-86
2021/01/05 15:25:12;;;;;;;;;;;;;;;;;;5039058;28;20436;-86
2021/01/05 15:27:38;;;;;;;;;;;;;;;;;;5037123;28;20851;-86
2021/01/05 15:30:05;;;;;;;;;;;;;;;;;;5036189;28;20418;-85
2021/01/05 15:32:32;;;;;;;;;;;;;;;;;;5037703;28;20398;-85
2021/01/05 15:34:58;;;;;;;;;;;;;;;;;;5036910;28;20850;-86
2021/01/05 15:37:27;;;;;;;;;;;;;;;;;;5039293;28;20414;-86
2021/01/05 15:39:53;;;;;;;;;;;;;;;;;;5037749;28;20420;-84
2021/01/05 15:42:20;;;;;;;;;;;;;;;;;;5040922;28;20787;-84
2021/01/05 15:44:46;;;;;;;;;;;;;;;;;;5031436;28;20415;-85
2021/01/05 15:47:13;;;;;;;;;;;;;;;;;;5038402;28;20390;-85
2021/01/05 15:49:39;;;;;;;;;;;;;;;;;;5038746;28;20414;-85
2021/01/05 15:52:05;;;;;;;;;;;;;;;;;;5038259;28;20407;-85
2021/01/05 15:54:32;;;;;;;;;;;;;;;;;;5039142;28;20399;-85
2021/01/05 15:56:58;;;;;;;;;;;;;;;;;;5039907;28;20810;-85
2021/01/05 15:59:24;;;;;;;;;;;;;;;;;;5023020;28;20422;-85
2021/01/05 16:01:51;;;;;;;;;;;;;;;;;;5034199;28;20406;-86
2021/01/05 16:04:18;;;;;;;;;;;;;;;;;;5040856;28;20466;-86
2021/01/05 16:06:44;;;;;;;;;;;;;;;;;;5027000;28;20397;-86
2021/01/05 16:09:10;;;;;;;;;;;;;;;;;;5020340;28;20385;-86
2021/01/05 16:11:37;;;;;;;;;;;;;;;;;;5034605;28;21059;-84
2021/01/05 16:14:04;;;;;;;;;;;;;;;;;;5057158;28;20395;-85
2021/01/05 16:16:32;;;;;;;;;;;;;;;;;;5045877;28;20391;-85
2021/01/05 16:18:58;;;;;;;;;;;;;;;;;;5043316;28;20418;-86
2021/01/05 16:21:25;;;;;;;;;;;;;;;;;;5041187;28;20411;-86
2021/01/05 16:23:51;;;;;;;;;;;;;;;;;;5030024;28;20393;-86
2021/01/05 16:26:17;;;;;;;;;;;;;;;;;;5042067;28;20385;-86
2021/01/05 16:28:44;;;;;;;;;;;;;;;;;;5054905;28;20390;-86
2021/01/05 16:31:10;;;;;;;;;;;;;;;;;;5055520;28;20411;-86
2021/01/05 16:33:37;;;;;;;;;;;;;;;;;;5034608;28;20412;-85
2021/01/05 16:36:03;;;;;;;;;;;;;;;;;;5040651;28;20393;-84
2021/01/05 16:38:30;;;;;;;;;;;;;;;;;;5049816;28;20414;-84
2021/01/05 16:40:56;;;;;;;;;;;;;;;;;;5050673;28;20438;-85
2021/01/05 16:43:22;;;;;;;;;;;;;;;;;;5045920;28;20398;-85
2021/01/05 16:45:49;;;;;;;;;;;;;;;;;;5039248;28;20379;-85
2021/01/05 16:48:17;;;;;;;;;;;;;;;;;;5039221;28;20405;-85
2021/01/05 16:50:43;;;;;;;;;;;;;;;;;;5049766;28;20453;-81
2021/01/05 16:53:09;;;;;;;;;;;;;;;;;;5047053;28;20755;-84
2021/01/05 16:55:36;;;;;;;;;;;;;;;;;;5055119;28;20847;-82
2021/01/05 16:58:02;;;;;;;;;;;;;;;;;;5046342;28;20395;-86
2021/01/05 17:00:29;;;;;;;;;;;;;;;;;;5037493;28;20806;-81
2021/01/05 17:02:55;;;;;;;;;;;;;;;;;;5040669;28;20477;-83
2021/01/05 17:05:22;;;;;;;;;;;;;;;;;;5040858;28;20378;-84
2021/01/05 17:07:49;;;;;;;;;;;;;;;;;;5053411;28;20852;-85
2021/01/05 17:10:15;;;;;;;;;;;;;;;;;;5053008;28;20403;-83
2021/01/05 17:12:42;;;;;;;;;;;;;;;;;;5041421;28;20399;-82
2021/01/05 17:15:08;;;;;;;;;;;;;;;;;;5033195;28;20461;-81
2021/01/05 17:17:39;;;;;;;;;;;;;;;;;;5037534;28;20413;-83
2021/01/05 17:20:06;;;;;;;;;;;;;;;;;;5038480;28;20422;-82
2021/01/05 17:22:32;;;;;;;;;;;;;;;;;;5045177;28;20395;-82
2021/01/05 17:24:58;;;;;;;;;;;;;;;;;;5038889;28;20393;-82
2021/01/05 17:27:25;;;;;;;;;;;;;;;;;;5039187;28;20844;-83
2021/01/05 17:29:54;;;;;;;;;;;;;;;;;;5038383;28;20751;-85
2021/01/05 17:32:20;;;;;;;;;;;;;;;;;;5040197;28;20394;-82
2021/01/05 19:30:59;;;;;;;;;;;;;;;;;;4944392;29;20483;-82
2021/01/05 19:33:28;;;;;;;;;;;;;;;;;;4955925;29;20399;-83
2021/01/05 19:35:54;;;;;;;;;;;;;;;;;;4944662;29;20400;-83
2021/01/05 19:38:21;;;;;;;;;;;;;;;;;;4955288;29;20424;-83
2021/01/05 19:40:50;;;;;;;;;;;;;;;;;;4947908;29;20435;-84
2021/01/05 19:43:17;;;;;;;;;;;;;;;;;;4956641;29;20396;-83
2021/01/05 19:45:47;;;;;;;;;;;;;;;;;;4950212;29;20477;-83
2021/01/05 19:48:13;;;;;;;;;;;;;;;;;;4950330;29;20394;-82
2021/01/05 19:50:40;;;;;;;;;;;;;;;;;;4957072;29;20424;-83
2021/01/05 19:53:06;;;;;;;;;;;;;;;;;;4967316;29;20382;-81
2021/01/05 19:55:33;;;;;;;;;;;;;;;;;;4963541;28;20403;-83
2021/01/05 19:57:59;;;;;;;;;;;;;;;;;;4995011;28;20410;-83
2021/01/05 20:00:28;;;;;;;;;;;;;;;;;;4980134;28;20427;-82
2021/01/05 20:02:55;;;;;;;;;;;;;;;;;;4981157;28;20877;-82
2021/01/05 20:05:23;;;;;;;;;;;;;;;;;;4981237;28;20486;-82
2021/01/05 20:07:50;;;;;;;;;;;;;;;;;;4989236;28;20466;-82
2021/01/05 20:10:17;;;;;;;;;;;;;;;;;;4981208;28;20923;-82
2021/01/05 20:12:43;;;;;;;;;;;;;;;;;;4996665;28;20395;-82
2021/01/05 20:15:09;;;;;;;;;;;;;;;;;;4985458;28;20812;-82
2021/01/05 20:17:36;;;;;;;;;;;;;;;;;;4986488;28;20450;-83
2021/01/05 20:20:03;;;;;;;;;;;;;;;;;;4981361;28;20395;-83
2021/01/05 20:22:29;;;;;;;;;;;;;;;;;;5038761;28;20379;-83
2021/01/05 20:24:56;;;;;;;;;;;;;;;;;;5051062;22;20412;-83
2021/01/05 20:27:22;;;;;;;;;;;;;;;;;;5057698;28;20405;-83
2021/01/05 20:29:49;;;;;;;;;;;;;;;;;;5050106;28;20388;-83
2021/01/05 20:32:15;;;;;;;;;;;;;;;;;;5060636;28;20381;-83
2021/01/05 20:34:41;;;;;;;;;;;;;;;;;;5044582;28;20937;-83
2021/01/05 20:37:08;;;;;;;;;;;;;;;;;;5040411;28;20390;-83
2021/01/05 20:39:34;;;;;;;;;;;;;;;;;;5039871;28;20402;-83